createdAt,value
2017-06-17T00:00:57.384Z,4.27
2017-06-17T00:03:25.807Z,4.33
2017-06-17T00:05:54.453Z,4.40
2017-06-17T00:08:22.900Z,4.73
2017-06-17T00:10:51.312Z,4.27
2017-06-17T00:13:19.774Z,4.57
2017-06-17T00:15:48.175Z,5.10
2017-06-17T00:18:16.585Z,4.53
2017-06-17T00:20:45.265Z,4.50
2017-06-17T00:23:13.679Z,5.00
2017-06-17T00:25:42.096Z,4.80
2017-06-17T00:28:11.516Z,4.63
2017-06-17T00:30:39.940Z,4.80
2017-06-17T00:33:08.352Z,5.90
2017-06-17T00:35:36.797Z,4.73
2017-06-17T00:38:05.263Z,4.67
2017-06-17T00:40:33.696Z,5.20
2017-06-17T00:43:02.942Z,4.90
2017-06-17T00:45:31.372Z,4.80
2017-06-17T00:48:00.572Z,4.90
2017-06-17T00:50:29.772Z,5.30
2017-06-17T00:52:58.951Z,4.63
2017-06-17T00:55:27.351Z,5.40
2017-06-17T00:57:56.779Z,5.20
2017-06-17T01:00:25.187Z,5.40
2017-06-17T01:02:53.605Z,5.33
2017-06-17T01:05:22.808Z,5.30
2017-06-17T01:07:51.997Z,5.07
2017-06-17T01:10:21.178Z,5.77
2017-06-17T01:12:49.792Z,5.27
2017-06-17T01:15:18.195Z,5.97
2017-06-17T01:17:46.613Z,5.80
2017-06-17T01:20:15.229Z,5.10
2017-06-17T01:22:44.425Z,5.13
2017-06-17T01:25:13.624Z,5.73
2017-06-17T01:27:42.096Z,4.80
2017-06-17T01:30:10.924Z,5.20
2017-06-17T01:32:39.339Z,5.60
2017-06-17T01:35:07.812Z,5.27
2017-06-17T01:37:36.241Z,4.97
2017-06-17T01:40:05.455Z,6.33
2017-06-17T01:42:34.105Z,5.43
2017-06-17T01:45:03.264Z,4.53
2017-06-17T01:47:31.681Z,5.00
2017-06-17T01:50:00.876Z,4.90
2017-06-17T01:52:30.058Z,5.33
2017-06-17T01:54:58.482Z,5.10
2017-06-17T01:57:27.139Z,5.90
2017-06-17T01:59:55.551Z,5.20
2017-06-17T02:02:23.958Z,4.97
2017-06-17T02:04:52.541Z,5.00
2017-06-17T02:07:20.948Z,5.03
2017-06-17T02:09:50.124Z,5.63
2017-06-17T02:12:18.611Z,5.60
2017-06-17T02:14:47.027Z,5.63
2017-06-17T02:17:15.443Z,5.80
2017-06-17T02:19:45.047Z,5.87
2017-06-17T02:22:13.458Z,5.33
2017-06-17T02:24:41.878Z,5.80
2017-06-17T02:27:10.413Z,6.13
2017-06-17T02:29:38.919Z,5.20
2017-06-17T02:32:07.351Z,5.50
2017-06-17T02:34:35.787Z,6.47
2017-06-17T02:37:04.216Z,6.80
2017-06-17T02:39:32.621Z,6.90
2017-06-17T02:42:01.969Z,6.80
2017-06-17T02:44:30.380Z,6.13
2017-06-17T02:46:58.800Z,6.03
2017-06-17T02:49:27.276Z,6.60
2017-06-17T02:51:55.685Z,6.83
2017-06-17T02:54:24.095Z,6.47
2017-06-17T02:56:52.577Z,6.03
2017-06-17T02:59:20.984Z,5.27
2017-06-17T03:01:50.158Z,5.97
2017-06-17T03:04:18.771Z,5.77
2017-06-17T03:06:47.172Z,5.40
2017-06-17T03:09:15.575Z,5.53
2017-06-17T03:11:43.356Z,6.17
2017-06-17T03:14:11.998Z,5.50
2017-06-17T03:16:40.424Z,5.80
2017-06-17T03:19:09.044Z,5.47
2017-06-17T03:21:37.464Z,5.50
2017-06-17T03:24:05.883Z,5.20
2017-06-17T03:26:35.494Z,5.33
2017-06-17T03:29:04.675Z,6.27
2017-06-17T03:31:33.859Z,5.50
2017-06-17T03:34:02.296Z,6.27
2017-06-17T03:36:30.737Z,6.77
2017-06-17T03:38:59.916Z,5.90
2017-06-17T03:41:28.980Z,6.00
2017-06-17T03:43:57.408Z,7.50
2017-06-17T03:46:26.644Z,6.07
2017-06-17T03:48:55.416Z,6.40
2017-06-17T03:51:23.839Z,7.27
2017-06-17T03:53:52.255Z,6.50
2017-06-17T03:56:21.470Z,6.57
2017-06-17T03:58:49.901Z,5.47
2017-06-17T04:01:18.416Z,6.63
2017-06-17T04:03:47.100Z,5.80
2017-06-17T04:06:15.524Z,6.37
2017-06-17T04:08:43.939Z,5.97
2017-06-17T04:11:13.183Z,6.10
2017-06-17T04:13:41.598Z,6.93
2017-06-17T04:16:10.013Z,5.40
2017-06-17T04:18:38.498Z,6.33
2017-06-17T04:21:06.938Z,6.70
2017-06-17T04:23:36.029Z,6.60
2017-06-17T04:26:04.662Z,6.80
2017-06-17T04:28:33.823Z,6.33
2017-06-17T04:31:02.240Z,6.70
2017-06-17T04:33:30.709Z,6.50
2017-06-17T04:35:59.136Z,6.80
2017-06-17T04:38:27.548Z,10.70
2017-06-17T04:40:56.472Z,6.90
2017-06-17T04:43:24.876Z,7.50
2017-06-17T04:45:53.293Z,7.20
2017-06-17T04:48:22.707Z,6.77
2017-06-17T04:50:51.119Z,7.03
2017-06-17T04:53:19.560Z,6.40
2017-06-17T04:55:48.819Z,5.63
2017-06-17T04:58:17.229Z,6.00
2017-06-17T05:00:46.404Z,6.87
2017-06-17T05:03:14.836Z,6.23
2017-06-17T05:05:43.296Z,5.50
2017-06-17T05:08:12.479Z,6.33
2017-06-17T05:10:42.121Z,5.53
2017-06-17T05:13:10.537Z,5.03
2017-06-17T05:15:38.962Z,5.10
2017-06-17T05:18:07.461Z,5.53
2017-06-17T05:20:35.912Z,6.20
2017-06-17T05:23:05.254Z,5.97
2017-06-17T05:25:34.112Z,5.83
2017-06-17T05:28:02.543Z,6.37
2017-06-17T05:30:31.189Z,6.67
2017-06-17T05:32:59.671Z,6.10
2017-06-17T05:35:28.085Z,5.67
2017-06-17T05:37:56.514Z,5.90
2017-06-17T05:40:25.088Z,7.67
2017-06-17T05:42:54.276Z,6.30
2017-06-17T05:45:23.461Z,6.30
2017-06-17T05:47:52.285Z,6.27
2017-06-17T05:50:20.509Z,6.27
2017-06-17T05:52:48.912Z,5.67
2017-06-17T05:55:18.465Z,6.20
2017-06-17T05:57:46.892Z,6.50
2017-06-17T06:00:16.108Z,6.37
2017-06-17T06:02:45.513Z,7.47
2017-06-17T06:05:13.995Z,6.67
2017-06-17T06:07:42.407Z,5.77
2017-06-17T06:10:11.061Z,5.50
2017-06-17T06:12:39.479Z,6.77
2017-06-17T06:15:07.897Z,8.30
2017-06-17T06:17:37.105Z,7.27
2017-06-17T06:20:06.297Z,6.00
2017-06-17T06:22:35.474Z,6.77
2017-06-17T06:25:04.704Z,5.93
2017-06-17T06:27:35.058Z,5.53
2017-06-17T06:30:03.491Z,6.10
2017-06-17T06:32:32.696Z,6.17
2017-06-17T06:35:01.875Z,6.70
2017-06-17T06:37:31.055Z,6.23
2017-06-17T06:39:59.513Z,6.57
2017-06-17T06:42:28.727Z,6.80
2017-06-17T06:44:57.130Z,5.73
2017-06-17T06:47:26.552Z,6.40
2017-06-17T06:49:55.725Z,6.23
2017-06-17T06:52:24.904Z,5.60
2017-06-17T06:54:53.737Z,6.57
2017-06-17T06:57:22.161Z,5.80
2017-06-17T06:59:51.251Z,5.90
2017-06-17T07:02:19.724Z,9.10
2017-06-17T07:04:48.193Z,7.30
2017-06-17T07:07:16.825Z,6.30
2017-06-17T07:09:46.296Z,9.27
2017-06-17T07:12:14.816Z,7.43
2017-06-17T07:14:43.828Z,6.13
2017-06-17T07:17:12.466Z,7.63
2017-06-17T07:19:40.928Z,7.33
2017-06-17T07:22:09.427Z,6.30
2017-06-17T07:24:37.903Z,6.17
2017-06-17T07:27:06.322Z,6.47
2017-06-17T07:29:35.504Z,5.63
2017-06-17T07:32:04.803Z,6.80
2017-06-17T07:34:33.204Z,6.30
2017-06-17T07:37:01.627Z,6.90
2017-06-17T07:39:30.491Z,8.23
2017-06-17T07:41:59.124Z,6.63
2017-06-17T07:44:27.569Z,7.80
2017-06-17T07:46:56.228Z,7.60
2017-06-17T07:49:24.673Z,7.63
2017-06-17T07:51:53.776Z,8.00
2017-06-17T07:54:22.983Z,11.40
2017-06-17T07:56:52.212Z,7.13
2017-06-17T07:59:20.899Z,7.87
2017-06-17T08:01:49.583Z,6.97
2017-06-17T08:04:17.988Z,6.93
2017-06-17T08:06:46.405Z,6.13
2017-06-17T08:09:15.708Z,7.60
2017-06-17T08:11:45.016Z,9.60
2017-06-17T08:14:13.423Z,6.90
2017-06-17T08:16:41.969Z,7.80
2017-06-17T08:19:11.131Z,6.60
2017-06-17T08:21:39.543Z,6.93
2017-06-17T08:24:07.983Z,7.27
2017-06-17T08:26:36.436Z,8.23
2017-06-17T08:29:04.853Z,7.13
2017-06-17T08:31:34.413Z,7.30
2017-06-17T08:34:02.876Z,6.90
2017-06-17T08:36:31.302Z,6.57
2017-06-17T08:38:59.787Z,7.50
2017-06-17T08:41:32.314Z,6.70
2017-06-17T08:44:01.198Z,7.00
2017-06-17T08:46:29.613Z,7.27
2017-06-17T08:48:58.040Z,6.60
2017-06-17T08:51:27.645Z,6.00
2017-06-17T08:53:56.817Z,6.90
2017-06-17T08:56:25.222Z,6.53
2017-06-17T08:58:54.624Z,7.93
2017-06-17T09:01:23.804Z,6.80
2017-06-17T09:03:52.219Z,6.57
2017-06-17T09:06:21.006Z,11.60
2017-06-17T09:08:49.427Z,7.20
2017-06-17T09:11:17.836Z,12.30
2017-06-17T09:13:47.257Z,7.50
2017-06-17T09:16:15.668Z,8.80
2017-06-17T09:18:44.080Z,10.97
2017-06-17T09:21:12.696Z,7.97
2017-06-17T09:23:41.871Z,7.00
2017-06-17T09:26:11.109Z,7.30
2017-06-17T09:28:39.663Z,6.90
2017-06-17T09:31:08.868Z,8.40
2017-06-17T09:33:38.061Z,6.23
2017-06-17T09:36:07.305Z,7.90
2017-06-17T09:38:35.752Z,7.20
2017-06-17T09:41:04.158Z,6.30
2017-06-17T09:43:32.803Z,8.00
2017-06-17T09:46:01.229Z,7.20
2017-06-17T09:48:29.663Z,6.83
2017-06-17T09:50:58.245Z,6.70
2017-06-17T09:53:26.706Z,6.40
2017-06-17T09:55:55.154Z,8.53
2017-06-17T09:58:23.653Z,8.10
2017-06-17T10:00:52.063Z,6.57
2017-06-17T10:03:20.633Z,7.57
2017-06-17T10:05:49.851Z,6.27
2017-06-17T10:08:18.261Z,7.90
2017-06-17T10:10:47.407Z,7.83
2017-06-17T10:13:16.924Z,6.40
2017-06-17T10:15:45.739Z,7.00
2017-06-17T10:18:14.154Z,7.60
2017-06-17T10:20:49.329Z,5.70
2017-06-17T10:23:17.814Z,6.60
2017-06-17T10:25:46.502Z,8.10
2017-06-17T10:28:16.608Z,9.80
2017-06-17T10:30:45.028Z,7.17
2017-06-17T10:33:13.467Z,7.30
2017-06-17T10:35:42.147Z,6.73
2017-06-17T10:38:10.698Z,7.20
2017-06-17T10:40:39.108Z,6.23
2017-06-17T10:43:07.688Z,7.20
2017-06-17T10:45:36.104Z,6.37
2017-06-17T10:48:04.504Z,6.37
2017-06-17T10:50:33.139Z,7.17
2017-06-17T10:53:01.564Z,6.27
2017-06-17T10:55:29.995Z,6.13
2017-06-17T10:57:58.430Z,6.00
2017-06-17T11:00:28.028Z,5.50
2017-06-17T11:02:56.436Z,6.30
2017-06-17T11:05:25.637Z,5.80
2017-06-17T11:07:54.828Z,6.07
2017-06-17T11:10:24.008Z,6.77
2017-06-17T11:12:52.627Z,11.13
2017-06-17T11:15:21.048Z,21.57
2017-06-17T11:17:49.467Z,11.60
2017-06-17T11:20:19.091Z,14.67
2017-06-17T11:22:47.520Z,9.40
2017-06-17T11:25:15.944Z,7.63
2017-06-17T11:27:45.352Z,8.30
2017-06-17T11:30:13.767Z,10.03
2017-06-17T11:32:42.186Z,9.40
2017-06-17T11:35:10.799Z,9.30
2017-06-17T11:37:39.269Z,9.17
2017-06-17T11:40:07.742Z,8.40
2017-06-17T11:42:37.152Z,8.63
2017-06-17T11:45:05.380Z,8.50
2017-06-17T11:47:33.800Z,11.40
2017-06-17T11:50:03.411Z,9.47
2017-06-17T11:52:31.862Z,9.10
2017-06-17T11:55:00.289Z,7.57
2017-06-17T11:57:28.748Z,21.63
2017-06-17T11:59:57.164Z,8.40
2017-06-17T12:02:25.636Z,9.33
2017-06-17T12:04:54.075Z,9.20
2017-06-17T12:07:23.252Z,8.50
2017-06-17T12:09:51.667Z,8.77
2017-06-17T12:12:20.243Z,9.77
2017-06-17T12:14:48.669Z,15.13
2017-06-17T12:17:17.085Z,8.83
2017-06-17T12:19:46.493Z,8.70
2017-06-17T12:22:15.671Z,8.53
2017-06-17T12:24:44.088Z,9.40
2017-06-17T12:27:12.568Z,8.97
2017-06-17T12:29:40.967Z,8.70
2017-06-17T12:32:09.391Z,10.27
2017-06-17T12:34:37.829Z,9.03
2017-06-17T12:37:06.257Z,8.77
2017-06-17T12:39:35.514Z,10.93
2017-06-17T12:42:04.368Z,9.03
2017-06-17T12:44:32.772Z,9.57
2017-06-17T12:47:01.199Z,9.13
2017-06-17T12:49:29.807Z,10.03
2017-06-17T12:51:58.230Z,9.90
2017-06-17T12:54:26.635Z,8.07
2017-06-17T12:56:55.860Z,9.17
2017-06-17T12:59:24.281Z,10.70
2017-06-17T13:01:52.700Z,8.07
2017-06-17T13:04:22.048Z,8.47
2017-06-17T13:06:50.459Z,7.60
2017-06-17T13:09:18.877Z,7.83
2017-06-17T13:11:47.342Z,7.83
2017-06-17T13:14:16.535Z,7.63
2017-06-17T13:16:45.760Z,9.00
2017-06-17T13:19:14.236Z,8.83
2017-06-17T13:21:42.711Z,9.60
2017-06-17T13:24:11.132Z,9.10
2017-06-17T13:26:39.765Z,8.30
2017-06-17T13:29:08.181Z,8.90
2017-06-17T13:31:36.602Z,9.27
2017-06-17T13:34:06.021Z,8.50
2017-06-17T13:36:35.200Z,9.87
2017-06-17T13:39:03.288Z,9.90
2017-06-17T13:41:32.512Z,10.23
2017-06-17T13:44:00.973Z,11.30
2017-06-17T13:46:30.164Z,10.90
2017-06-17T13:48:59.781Z,12.27
2017-06-17T13:51:28.196Z,11.63
2017-06-17T13:53:56.617Z,14.00
2017-06-17T13:56:25.830Z,12.70
2017-06-17T13:58:54.256Z,13.97
2017-06-17T14:01:22.672Z,10.93
2017-06-17T14:03:52.292Z,15.90
2017-06-17T14:06:20.704Z,12.80
2017-06-17T14:08:49.131Z,13.33
2017-06-17T14:11:18.729Z,13.33
2017-06-17T14:13:47.139Z,13.90
2017-06-17T14:16:15.628Z,12.07
2017-06-17T14:18:44.508Z,12.40
2017-06-17T14:21:18.465Z,13.60
2017-06-17T14:23:46.919Z,12.77
2017-06-17T14:26:15.332Z,12.30
2017-06-17T14:28:43.754Z,13.50
2017-06-17T14:31:12.437Z,14.60
2017-06-17T14:33:40.865Z,14.50
2017-06-17T14:36:09.291Z,12.57
2017-06-17T14:38:38.495Z,13.10
2017-06-17T14:41:06.977Z,14.60
2017-06-17T14:43:35.414Z,14.20
2017-06-17T14:46:04.000Z,14.13
2017-06-17T14:48:32.413Z,16.33
2017-06-17T14:51:00.827Z,14.30
2017-06-17T14:53:29.319Z,34.77
2017-06-17T14:55:57.727Z,12.93
2017-06-17T14:58:26.931Z,14.40
2017-06-17T15:00:56.186Z,17.60
2017-06-17T15:03:24.594Z,10.63
2017-06-17T15:05:53.008Z,12.70
2017-06-17T15:08:21.441Z,14.37
2017-06-17T15:10:49.858Z,16.60
2017-06-17T15:13:18.268Z,13.63
2017-06-17T15:15:46.921Z,12.20
2017-06-17T15:18:15.332Z,13.13
2017-06-17T15:20:43.752Z,11.63
2017-06-17T15:23:12.377Z,12.00
2017-06-17T15:25:40.804Z,10.77
2017-06-17T15:28:09.227Z,9.00
2017-06-17T15:30:38.441Z,8.47
2017-06-17T15:33:06.863Z,8.20
2017-06-17T15:35:35.466Z,8.00
2017-06-17T15:38:05.015Z,14.83
2017-06-17T15:40:33.418Z,7.60
2017-06-17T15:43:02.986Z,7.00
2017-06-17T15:45:31.451Z,7.63
2017-06-17T15:47:59.875Z,6.93
2017-06-17T15:50:28.305Z,7.77
2017-06-17T15:52:56.988Z,7.70
2017-06-17T15:55:25.405Z,7.23
2017-06-17T15:57:53.840Z,9.93
2017-06-17T16:00:23.254Z,10.90
2017-06-17T16:02:52.628Z,7.40
2017-06-17T16:05:21.732Z,10.70
2017-06-17T16:07:51.148Z,11.37
2017-06-17T16:10:19.590Z,10.53
2017-06-17T16:12:48.005Z,14.93
2017-06-17T16:15:16.487Z,9.27
2017-06-17T16:17:44.904Z,9.17
2017-06-17T16:20:13.368Z,10.50
2017-06-17T16:22:42.190Z,9.97
2017-06-17T16:25:10.596Z,9.90
2017-06-17T16:27:39.819Z,9.60
2017-06-17T16:30:08.453Z,9.60
2017-06-17T16:32:36.869Z,10.00
2017-06-17T16:35:05.375Z,9.30
2017-06-17T16:37:33.944Z,9.57
2017-06-17T16:40:02.377Z,10.07
2017-06-17T16:42:30.796Z,7.70
2017-06-17T16:44:59.375Z,8.70
2017-06-17T16:47:27.807Z,8.00
2017-06-17T16:49:56.217Z,7.93
2017-06-17T16:52:25.599Z,8.57
2017-06-17T16:54:54.008Z,8.07
2017-06-17T16:57:22.420Z,7.90
2017-06-17T16:59:50.904Z,7.90
2017-06-17T17:02:19.311Z,7.60
2017-06-17T17:04:47.720Z,6.30
2017-06-17T17:07:16.189Z,7.97
2017-06-17T17:09:45.535Z,6.83
2017-06-17T17:12:13.937Z,8.00
2017-06-17T17:14:42.569Z,6.43
2017-06-17T17:17:10.989Z,8.60
2017-06-17T17:19:39.410Z,10.50
2017-06-17T17:22:08.755Z,6.73
2017-06-17T17:24:37.174Z,6.47
2017-06-17T17:27:05.587Z,6.10
2017-06-17T17:29:34.263Z,8.37
2017-06-17T17:32:03.467Z,6.30
2017-06-17T17:34:31.925Z,6.00
2017-06-17T17:37:01.126Z,5.70
2017-06-17T17:39:29.543Z,6.10
2017-06-17T17:41:57.963Z,5.83
2017-06-17T17:44:26.319Z,5.90
2017-06-17T17:46:54.737Z,6.00
2017-06-17T17:49:23.915Z,6.17
2017-06-17T17:51:52.737Z,5.63
2017-06-17T17:54:21.157Z,6.60
2017-06-17T17:56:49.588Z,6.20
2017-06-17T17:59:18.822Z,5.83
2017-06-17T18:01:47.237Z,5.73
2017-06-17T18:04:15.659Z,5.90
2017-06-17T18:06:44.151Z,5.40
2017-06-17T18:09:12.579Z,6.13
2017-06-17T18:11:41.028Z,7.10
2017-06-17T18:14:09.674Z,7.03
2017-06-17T18:16:38.102Z,8.20
2017-06-17T18:19:06.519Z,6.50
2017-06-17T18:21:35.836Z,6.83
2017-06-17T18:24:04.331Z,6.67
2017-06-17T18:26:32.750Z,7.00
2017-06-17T18:29:01.369Z,6.70
2017-06-17T18:31:30.557Z,5.73
2017-06-17T18:33:59.741Z,8.47
2017-06-17T18:36:29.068Z,7.20
2017-06-17T18:38:57.551Z,7.30
2017-06-17T18:41:25.963Z,9.80
2017-06-17T18:43:54.618Z,6.67
2017-06-17T18:46:23.045Z,7.20
2017-06-17T18:48:51.469Z,5.60
2017-06-17T18:51:20.355Z,6.20
2017-06-17T18:53:48.764Z,6.70
2017-06-17T18:56:17.176Z,5.80
2017-06-17T18:58:45.762Z,7.17
2017-06-17T19:01:14.187Z,6.00
2017-06-17T19:03:42.621Z,7.07
2017-06-17T19:06:11.233Z,7.40
2017-06-17T19:08:39.657Z,8.03
2017-06-17T19:11:08.072Z,7.70
2017-06-17T19:13:37.445Z,7.00
2017-06-17T19:16:05.863Z,6.80
2017-06-17T19:18:35.108Z,7.33
2017-06-17T19:21:03.573Z,9.07
2017-06-17T19:23:32.002Z,10.10
2017-06-17T19:26:00.431Z,8.17
2017-06-17T19:28:29.104Z,7.90
2017-06-17T19:30:57.525Z,7.70
2017-06-17T19:33:25.980Z,7.67
2017-06-17T19:35:54.419Z,7.90
2017-06-17T19:38:23.243Z,11.00
2017-06-17T19:40:51.697Z,9.50
2017-06-17T19:43:21.313Z,7.90
2017-06-17T19:45:49.729Z,9.37
2017-06-17T19:48:18.132Z,7.97
2017-06-17T19:50:46.585Z,7.43
2017-06-17T19:53:15.009Z,8.20
2017-06-17T19:55:44.246Z,8.17
2017-06-17T19:58:12.910Z,6.57
2017-06-17T20:00:41.341Z,6.77
2017-06-17T20:03:09.742Z,6.40
2017-06-17T20:05:39.164Z,7.07
2017-06-17T20:08:08.818Z,6.70
2017-06-17T20:10:37.244Z,7.37
2017-06-17T20:13:06.650Z,6.83
2017-06-17T20:15:35.066Z,6.93
2017-06-17T20:18:03.476Z,6.97
2017-06-17T20:20:31.887Z,6.87
2017-06-17T20:23:00.111Z,7.60
2017-06-17T20:25:29.219Z,8.40
2017-06-17T20:27:57.686Z,7.30
2017-06-17T20:30:26.102Z,7.70
2017-06-17T20:32:55.287Z,7.83
2017-06-17T20:35:23.908Z,8.63
2017-06-17T20:37:52.399Z,8.80
2017-06-17T20:40:20.839Z,8.23
2017-06-17T20:42:49.325Z,8.00
2017-06-17T20:45:18.517Z,8.80
2017-06-17T20:47:47.720Z,13.00
2017-06-17T20:50:16.959Z,18.97
2017-06-17T20:52:45.396Z,14.20
2017-06-17T20:55:14.584Z,10.83
2017-06-17T20:57:44.019Z,8.00
2017-06-17T21:00:52.503Z,8.90
2017-06-17T21:03:21.919Z,8.43
2017-06-17T21:05:50.336Z,8.70
2017-06-17T21:08:18.809Z,7.63
2017-06-17T21:10:47.302Z,8.80
2017-06-17T21:13:15.780Z,8.23
2017-06-17T21:15:44.316Z,7.60
2017-06-17T21:18:13.557Z,8.07
2017-06-17T21:20:42.003Z,7.83
2017-06-17T21:23:10.449Z,8.00
2017-06-17T21:25:39.281Z,8.57
2017-06-17T21:28:07.697Z,8.00
2017-06-17T21:30:36.108Z,8.80
2017-06-17T21:33:05.536Z,9.70
2017-06-17T21:35:33.955Z,8.50
2017-06-17T21:38:02.375Z,9.20
2017-06-17T21:40:31.815Z,9.23
2017-06-17T21:43:00.247Z,8.67
2017-06-17T21:45:28.670Z,9.80
2017-06-17T21:47:57.120Z,9.93
2017-06-17T21:50:26.340Z,9.77
2017-06-17T21:52:54.768Z,9.70
2017-06-17T21:55:23.396Z,9.83
2017-06-17T21:57:51.884Z,10.37
2017-06-17T22:00:20.305Z,9.60
2017-06-17T22:02:48.946Z,11.10
2017-06-17T22:05:17.390Z,10.60
2017-06-17T22:07:46.586Z,9.80
2017-06-17T22:10:15.208Z,10.20
2017-06-17T22:12:43.624Z,8.60
2017-06-17T22:15:12.047Z,11.63
2017-06-17T22:17:40.757Z,13.13
2017-06-17T22:20:09.185Z,12.80
2017-06-17T22:22:37.629Z,8.90
2017-06-17T22:25:06.211Z,9.40
2017-06-17T22:27:34.631Z,9.37
2017-06-17T22:30:03.056Z,8.77
2017-06-17T22:32:31.730Z,12.17
2017-06-17T22:34:59.975Z,11.20
2017-06-17T22:37:29.201Z,9.63
2017-06-17T22:39:57.629Z,8.20
2017-06-17T22:42:26.048Z,8.10
2017-06-17T22:44:54.475Z,7.80
2017-06-17T22:47:23.627Z,7.70
2017-06-17T22:49:52.063Z,9.37
2017-06-17T22:52:20.487Z,8.80
2017-06-17T22:54:49.182Z,8.53
2017-06-17T22:57:17.600Z,8.87
2017-06-17T22:59:46.018Z,10.00
2017-06-17T23:02:14.576Z,9.33
2017-06-17T23:04:43.018Z,9.60
2017-06-17T23:07:11.431Z,9.63
2017-06-17T23:09:40.247Z,9.73
2017-06-17T23:12:08.655Z,9.40
2017-06-17T23:14:37.082Z,10.00
2017-06-17T23:17:05.556Z,9.90
2017-06-17T23:19:33.976Z,10.67
2017-06-17T23:22:02.419Z,10.80
2017-06-17T23:24:30.955Z,10.50
2017-06-17T23:26:59.035Z,9.67
2017-06-17T23:29:27.477Z,9.77
2017-06-17T23:31:55.969Z,10.00
2017-06-17T23:34:24.384Z,10.23
2017-06-17T23:36:52.792Z,10.37
2017-06-17T23:39:22.144Z,9.97
2017-06-17T23:41:50.586Z,9.80
2017-06-17T23:44:19.767Z,10.70
2017-06-17T23:46:49.015Z,11.77
2017-06-17T23:49:17.469Z,9.97
2017-06-17T23:51:45.899Z,9.87
2017-06-17T23:54:14.522Z,11.00
2017-06-17T23:56:42.946Z,10.87
2017-06-17T23:59:11.361Z,10.53
